Time;durP1;ratioP1;P1;durP2;ratioP2;P2;SDS_P1;SDS_P2;PMS_P1;PMS_P2;Temp;Humidity;BMP_temperature;BMP_pressure;BME280_temperature;BME280_humidity;BME280_pressure;Samples;Min_cycle;Max_cycle;Signal;HPM_P1;HPM_P2
2021/09/02 00:00:18;;;;;;;16.90;10.50;;;;;;;;;;5051936;28;20063;-83
2021/09/02 00:02:43;;;;;;;17.02;11.27;;;;;;;;;;5035503;28;20048;-83
2021/09/02 00:05:09;;;;;;;18.85;11.52;;;;;;;;;;5053133;28;20469;-83
2021/09/02 00:07:34;;;;;;;14.52;10.93;;;;;;;;;;5035473;28;20025;-84
2021/09/02 00:10:00;;;;;;;16.50;11.35;;;;;;;;;;5035229;28;20066;-84
2021/09/02 00:12:26;;;;;;;22.63;11.85;;;;;;;;;;5053301;28;20031;-84
2021/09/02 00:14:51;;;;;;;17.52;11.18;;;;;;;;;;5035156;28;20413;-84
2021/09/02 00:17:17;;;;;;;16.52;11.52;;;;;;;;;;5009391;28;20085;-83
2021/09/02 00:19:42;;;;;;;15.77;10.95;;;;;;;;;;5035067;28;20477;-83
2021/09/02 00:22:07;;;;;;;15.25;11.40;;;;;;;;;;5035271;28;20546;-83
2021/09/02 00:24:33;;;;;;;16.35;12.02;;;;;;;;;;5050872;28;20104;-83
2021/09/02 00:26:59;;;;;;;18.70;11.18;;;;;;;;;;5051606;28;20033;-83
2021/09/02 00:29:24;;;;;;;17.75;11.93;;;;;;;;;;5034994;28;20036;-83
2021/09/02 00:31:49;;;;;;;18.13;12.23;;;;;;;;;;5035189;28;20029;-83
2021/09/02 00:34:15;;;;;;;19.45;11.07;;;;;;;;;;5018498;28;20029;-83
2021/09/02 00:36:40;;;;;;;19.17;11.95;;;;;;;;;;5035083;28;20025;-83
2021/09/02 00:39:06;;;;;;;17.30;11.45;;;;;;;;;;5031806;28;20417;-83
2021/09/02 00:41:31;;;;;;;17.17;10.68;;;;;;;;;;5046564;28;20131;-83
2021/09/02 00:43:57;;;;;;;19.38;12.20;;;;;;;;;;5035404;28;20095;-83
2021/09/02 00:46:22;;;;;;;19.25;11.88;;;;;;;;;;5034924;28;20032;-83
2021/09/02 00:48:49;;;;;;;17.20;11.32;;;;;;;;;;5034951;28;20495;-83
2021/09/02 00:51:16;;;;;;;18.05;11.40;;;;;;;;;;5051439;28;20035;-83
2021/09/02 00:53:43;;;;;;;17.55;11.30;;;;;;;;;;5051530;28;20536;-83
2021/09/02 00:56:09;;;;;;;16.20;11.40;;;;;;;;;;5051240;28;20044;-83
2021/09/02 00:58:35;;;;;;;17.88;11.55;;;;;;;;;;5051531;28;20435;-83
2021/09/02 01:01:00;;;;;;;15.95;11.45;;;;;;;;;;5035017;28;20021;-83
2021/09/02 01:03:26;;;;;;;19.10;11.68;;;;;;;;;;5018304;28;20033;-83
2021/09/02 01:05:52;;;;;;;15.73;11.15;;;;;;;;;;5051409;28;20025;-83
2021/09/02 01:08:18;;;;;;;17.33;11.57;;;;;;;;;;5052598;28;20483;-83
2021/09/02 01:10:46;;;;;;;16.65;11.23;;;;;;;;;;5034515;28;20472;-83
2021/09/02 01:13:12;;;;;;;17.08;12.02;;;;;;;;;;5052609;28;20021;-83
2021/09/02 01:15:38;;;;;;;16.80;11.32;;;;;;;;;;5051111;28;20373;-83
2021/09/02 01:18:03;;;;;;;15.63;11.90;;;;;;;;;;5052640;28;20033;-83
2021/09/02 01:20:31;;;;;;;16.50;11.35;;;;;;;;;;5051111;28;20472;-83
2021/09/02 01:23:00;;;;;;;16.95;11.70;;;;;;;;;;5052473;28;20078;-83
2021/09/02 01:25:31;;;;;;;15.65;11.52;;;;;;;;;;5051088;28;20017;-83
2021/09/02 01:28:03;;;;;;;17.80;11.25;;;;;;;;;;5052441;28;20023;-83
2021/09/02 01:30:29;;;;;;;16.88;11.40;;;;;;;;;;5052349;28;20399;-83
2021/09/02 01:32:55;;;;;;;18.25;11.90;;;;;;;;;;5051008;28;20384;-83
2021/09/02 01:35:23;;;;;;;18.55;11.35;;;;;;;;;;5035029;28;20040;-83
2021/09/02 01:37:50;;;;;;;17.77;11.45;;;;;;;;;;5055922;28;20095;-83
2021/09/02 01:40:22;;;;;;;17.80;11.57;;;;;;;;;;5054651;28;20025;-83
2021/09/02 01:42:48;;;;;;;18.60;11.68;;;;;;;;;;5054587;28;20029;-83
2021/09/02 01:45:15;;;;;;;18.50;11.38;;;;;;;;;;5054627;28;20066;-83
2021/09/02 01:47:42;;;;;;;18.63;11.55;;;;;;;;;;5038475;28;20029;-83
2021/09/02 01:50:16;;;;;;;17.67;11.52;;;;;;;;;;5037852;28;20028;-83
2021/09/02 01:52:43;;;;;;;18.92;11.00;;;;;;;;;;5054134;28;20056;-83
2021/09/02 01:55:09;;;;;;;18.70;11.68;;;;;;;;;;5055557;28;20043;-83
2021/09/02 01:57:36;;;;;;;17.60;11.32;;;;;;;;;;5021499;28;20025;-83
2021/09/02 02:00:07;;;;;;;16.55;11.48;;;;;;;;;;5054167;28;20044;-83
2021/09/02 02:02:32;;;;;;;15.82;10.88;;;;;;;;;;5054396;28;20033;-83
2021/09/02 02:04:58;;;;;;;16.17;11.43;;;;;;;;;;5037590;28;20017;-83
2021/09/02 02:07:23;;;;;;;19.38;11.93;;;;;;;;;;5021112;28;20033;-83
2021/09/02 02:09:49;;;;;;;16.95;11.27;;;;;;;;;;5021100;28;20122;-83
2021/09/02 02:12:15;;;;;;;15.15;10.57;;;;;;;;;;5052046;28;20033;-83
2021/09/02 02:14:40;;;;;;;22.67;12.20;;;;;;;;;;5054111;28;20025;-83
2021/09/02 02:17:05;;;;;;;19.60;11.35;;;;;;;;;;5037667;28;20116;-83
2021/09/02 02:19:31;;;;;;;16.48;10.77;;;;;;;;;;5055288;28;20029;-83
2021/09/02 02:21:57;;;;;;;16.50;11.38;;;;;;;;;;5053928;28;20040;-83
2021/09/02 02:24:22;;;;;;;18.25;11.25;;;;;;;;;;5054038;28;20067;-83
2021/09/02 02:26:48;;;;;;;15.77;11.23;;;;;;;;;;5053830;28;20033;-83
2021/09/02 02:29:14;;;;;;;18.10;10.75;;;;;;;;;;5053703;28;20021;-83
2021/09/02 02:31:39;;;;;;;18.70;11.40;;;;;;;;;;5049237;28;20458;-83
2021/09/02 02:34:05;;;;;;;17.48;11.27;;;;;;;;;;5053577;28;20490;-83
2021/09/02 02:36:30;;;;;;;18.08;11.38;;;;;;;;;;5053786;28;20029;-83
2021/09/02 02:38:56;;;;;;;16.75;11.02;;;;;;;;;;5053557;28;20057;-83
2021/09/02 02:41:21;;;;;;;17.67;11.05;;;;;;;;;;5053934;28;20028;-83
2021/09/02 02:43:47;;;;;;;16.77;11.57;;;;;;;;;;5053504;28;20029;-83
2021/09/02 02:46:12;;;;;;;17.90;11.05;;;;;;;;;;5054664;28;20043;-83
2021/09/02 02:48:38;;;;;;;17.05;11.15;;;;;;;;;;5036249;28;20025;-83
2021/09/02 02:51:04;;;;;;;17.13;11.35;;;;;;;;;;5036663;28;20078;-83
2021/09/02 02:53:29;;;;;;;16.50;11.25;;;;;;;;;;5053250;28;20135;-83
2021/09/02 02:55:55;;;;;;;19.75;11.05;;;;;;;;;;5033623;28;20459;-83
2021/09/02 02:58:20;;;;;;;15.45;10.93;;;;;;;;;;5049343;28;20400;-83
2021/09/02 03:00:46;;;;;;;15.98;11.02;;;;;;;;;;5053301;28;20499;-83
2021/09/02 03:03:11;;;;;;;14.75;11.45;;;;;;;;;;5036537;28;20029;-83
2021/09/02 03:05:36;;;;;;;17.85;11.32;;;;;;;;;;5036850;28;20028;-83
2021/09/02 03:08:05;;;;;;;15.55;10.85;;;;;;;;;;5053165;28;20033;-83
2021/09/02 03:10:31;;;;;;;17.48;10.95;;;;;;;;;;5058857;28;20358;-83
2021/09/02 03:12:56;;;;;;;16.48;11.38;;;;;;;;;;5021670;28;20086;-83
2021/09/02 03:15:22;;;;;;;18.27;11.57;;;;;;;;;;5054202;28;20390;-83
2021/09/02 03:17:47;;;;;;;16.17;11.25;;;;;;;;;;5054137;28;20071;-83
2021/09/02 03:20:13;;;;;;;14.75;10.98;;;;;;;;;;5052767;28;20025;-83
2021/09/02 03:22:38;;;;;;;16.95;11.32;;;;;;;;;;5036301;28;20542;-83
2021/09/02 03:25:05;;;;;;;16.35;11.52;;;;;;;;;;5036122;28;20047;-83
2021/09/02 03:27:30;;;;;;;17.25;11.63;;;;;;;;;;5052655;28;20108;-83
2021/09/02 03:29:55;;;;;;;15.68;10.82;;;;;;;;;;5036026;28;20159;-83
2021/09/02 03:32:21;;;;;;;17.88;10.75;;;;;;;;;;5035969;28;20021;-83
2021/09/02 03:34:46;;;;;;;18.20;11.50;;;;;;;;;;5035983;28;20025;-83
2021/09/02 03:37:12;;;;;;;18.90;11.63;;;;;;;;;;5035814;28;20036;-83
2021/09/02 03:39:37;;;;;;;15.20;11.93;;;;;;;;;;5036050;28;20063;-83
2021/09/02 03:42:03;;;;;;;17.00;11.57;;;;;;;;;;5035556;28;20029;-83
2021/09/02 03:44:28;;;;;;;17.98;11.25;;;;;;;;;;5052608;28;20082;-83
2021/09/02 03:46:53;;;;;;;20.90;12.27;;;;;;;;;;5019162;28;20575;-83
2021/09/02 03:49:19;;;;;;;18.45;11.85;;;;;;;;;;5035750;28;20029;-83
2021/09/02 03:51:44;;;;;;;21.58;12.02;;;;;;;;;;5052163;28;20029;-83
2021/09/02 03:54:10;;;;;;;16.90;11.75;;;;;;;;;;5053369;28;20041;-83
2021/09/02 03:56:35;;;;;;;19.20;11.43;;;;;;;;;;5052147;28;20036;-83
2021/09/02 03:59:01;;;;;;;18.38;11.73;;;;;;;;;;5052027;28;20451;-83
2021/09/02 04:01:26;;;;;;;17.25;12.00;;;;;;;;;;5035444;28;20666;-83
2021/09/02 04:03:53;;;;;;;15.82;11.45;;;;;;;;;;5035778;28;20033;-83
2021/09/02 04:06:19;;;;;;;16.23;11.05;;;;;;;;;;5051947;28;20025;-83
2021/09/02 04:08:44;;;;;;;15.45;11.20;;;;;;;;;;5035483;28;20029;-83
2021/09/02 04:11:10;;;;;;;15.68;11.35;;;;;;;;;;5040387;28;20025;-83
2021/09/02 04:13:35;;;;;;;14.98;10.63;;;;;;;;;;5035310;28;20543;-83
2021/09/02 04:16:01;;;;;;;16.23;11.48;;;;;;;;;;5035647;28;20029;-83
2021/09/02 04:18:26;;;;;;;15.65;11.20;;;;;;;;;;5035284;28;20388;-83
2021/09/02 04:20:52;;;;;;;16.20;11.48;;;;;;;;;;5051921;28;20033;-83
2021/09/02 04:23:17;;;;;;;16.08;10.73;;;;;;;;;;5035127;28;20051;-83
2021/09/02 04:25:43;;;;;;;13.68;10.60;;;;;;;;;;5035231;28;20021;-83
2021/09/02 04:28:08;;;;;;;16.58;10.55;;;;;;;;;;5051645;28;20028;-83
2021/09/02 04:30:34;;;;;;;18.02;11.77;;;;;;;;;;5034949;28;20029;-83
2021/09/02 04:33:01;;;;;;;16.58;10.45;;;;;;;;;;5035026;28;20120;-83
2021/09/02 04:35:27;;;;;;;15.80;11.02;;;;;;;;;;5053241;28;20554;-83
2021/09/02 04:37:52;;;;;;;16.20;10.13;;;;;;;;;;5052799;28;20060;-83
2021/09/02 04:40:18;;;;;;;16.55;10.57;;;;;;;;;;5034984;28;20044;-83
2021/09/02 04:42:43;;;;;;;15.85;10.20;;;;;;;;;;5051389;28;20029;-83
2021/09/02 04:45:09;;;;;;;17.25;10.05;;;;;;;;;;5035091;28;20037;-83
2021/09/02 04:47:35;;;;;;;17.60;9.85;;;;;;;;;;5051356;28;20028;-83
2021/09/02 04:50:01;;;;;;;13.38;9.52;;;;;;;;;;5035581;28;20494;-83
2021/09/02 04:52:26;;;;;;;16.20;9.60;;;;;;;;;;5052427;28;20045;-83
2021/09/02 04:54:52;;;;;;;14.90;9.63;;;;;;;;;;5051538;28;20033;-83
2021/09/02 04:57:19;;;;;;;15.60;9.77;;;;;;;;;;5018460;28;20033;-83
2021/09/02 04:59:46;;;;;;;17.58;9.73;;;;;;;;;;5035195;28;20063;-83
2021/09/02 05:02:12;;;;;;;16.75;9.80;;;;;;;;;;5051411;28;20036;-83
2021/09/02 05:04:37;;;;;;;14.82;9.25;;;;;;;;;;5051362;28;20031;-83
2021/09/02 05:07:04;;;;;;;12.88;8.98;;;;;;;;;;5051354;28;20469;-83
2021/09/02 05:09:29;;;;;;;16.25;9.55;;;;;;;;;;5051456;28;20496;-83
2021/09/02 05:11:55;;;;;;;13.43;9.63;;;;;;;;;;5041738;28;20029;-83
2021/09/02 05:14:20;;;;;;;14.90;8.65;;;;;;;;;;5056313;28;20021;-83
2021/09/02 05:16:46;;;;;;;13.65;9.05;;;;;;;;;;5038711;28;20086;-83
2021/09/02 05:19:11;;;;;;;12.65;8.85;;;;;;;;;;5055121;28;20029;-83
2021/09/02 05:21:36;;;;;;;14.50;8.77;;;;;;;;;;5055085;28;20384;-83
2021/09/02 05:24:02;;;;;;;13.35;8.95;;;;;;;;;;5055032;28;20088;-83
2021/09/02 05:26:27;;;;;;;13.13;9.13;;;;;;;;;;5038510;28;20075;-83
2021/09/02 05:28:53;;;;;;;14.57;8.98;;;;;;;;;;5038254;28;20033;-83
2021/09/02 05:31:18;;;;;;;14.90;9.50;;;;;;;;;;5054896;28;20413;-83
2021/09/02 05:33:44;;;;;;;13.65;9.25;;;;;;;;;;5054761;28;20032;-83
2021/09/02 05:36:10;;;;;;;12.70;8.40;;;;;;;;;;5038171;28;20032;-83
2021/09/02 05:38:35;;;;;;;16.70;9.18;;;;;;;;;;5021660;28;20032;-83
2021/09/02 05:41:01;;;;;;;15.45;10.02;;;;;;;;;;5021596;28;20028;-83
2021/09/02 05:43:26;;;;;;;14.60;8.88;;;;;;;;;;5054661;28;20029;-83
2021/09/02 05:45:52;;;;;;;14.60;8.85;;;;;;;;;;5038105;28;20033;-83
2021/09/02 05:48:17;;;;;;;12.88;8.40;;;;;;;;;;5054773;28;20033;-83
2021/09/02 05:50:43;;;;;;;12.60;8.73;;;;;;;;;;5021680;28;20112;-83
2021/09/02 05:53:09;;;;;;;12.60;8.55;;;;;;;;;;5054825;28;20081;-83
2021/09/02 05:55:36;;;;;;;13.43;8.25;;;;;;;;;;5038073;28;20037;-83
2021/09/02 05:58:01;;;;;;;13.00;8.82;;;;;;;;;;5054307;28;20025;-83
2021/09/02 06:00:27;;;;;;;15.30;9.05;;;;;;;;;;5021825;28;20033;-83
2021/09/02 06:02:52;;;;;;;12.48;8.27;;;;;;;;;;5037665;28;20481;-83
2021/09/02 06:05:18;;;;;;;17.08;8.88;;;;;;;;;;5037783;28;20072;-83
2021/09/02 06:07:43;;;;;;;13.85;8.48;;;;;;;;;;5054363;28;20074;-83
2021/09/02 06:10:09;;;;;;;13.80;8.75;;;;;;;;;;5055377;28;20443;-83
2021/09/02 06:12:35;;;;;;;15.88;9.60;;;;;;;;;;5039865;28;20041;-83
2021/09/02 06:15:01;;;;;;;15.95;9.10;;;;;;;;;;5037506;28;20044;-83
2021/09/02 06:17:26;;;;;;;14.77;9.63;;;;;;;;;;5055677;28;20033;-83
2021/09/02 06:19:52;;;;;;;16.83;10.00;;;;;;;;;;5037657;28;20036;-83
2021/09/02 06:22:17;;;;;;;13.95;9.57;;;;;;;;;;5037226;28;20021;-83
2021/09/02 06:24:42;;;;;;;15.15;9.32;;;;;;;;;;5037509;28;20100;-83
2021/09/02 06:27:08;;;;;;;16.60;10.10;;;;;;;;;;5037546;28;20480;-83
2021/09/02 06:29:33;;;;;;;21.55;9.70;;;;;;;;;;5053932;28;20483;-83
2021/09/02 06:31:59;;;;;;;19.38;10.73;;;;;;;;;;5037249;28;20092;-83
2021/09/02 06:34:24;;;;;;;16.60;9.77;;;;;;;;;;5053948;28;20029;-83
2021/09/02 06:36:49;;;;;;;16.92;9.85;;;;;;;;;;5020711;28;20033;-83
2021/09/02 06:39:15;;;;;;;16.38;9.70;;;;;;;;;;5037131;28;20037;-83
2021/09/02 06:41:41;;;;;;;16.92;9.90;;;;;;;;;;5053505;28;20023;-83
2021/09/02 06:44:06;;;;;;;15.30;10.18;;;;;;;;;;5037145;28;20017;-83
2021/09/02 06:46:31;;;;;;;17.85;9.70;;;;;;;;;;5037103;28;20028;-83
2021/09/02 06:48:57;;;;;;;18.67;10.70;;;;;;;;;;5022299;28;20096;-83
2021/09/02 06:51:23;;;;;;;20.50;9.50;;;;;;;;;;5038801;28;20487;-83
2021/09/02 06:53:48;;;;;;;15.93;9.30;;;;;;;;;;5054560;28;20052;-84
2021/09/02 06:56:14;;;;;;;19.25;9.88;;;;;;;;;;5056145;28;20028;-83
2021/09/02 06:58:39;;;;;;;17.95;10.07;;;;;;;;;;5056078;28;20035;-83
2021/09/02 07:01:05;;;;;;;19.48;9.93;;;;;;;;;;5054698;28;20029;-83
2021/09/02 07:03:30;;;;;;;19.75;10.25;;;;;;;;;;5036140;28;20079;-84
2021/09/02 07:05:55;;;;;;;17.52;9.15;;;;;;;;;;5035519;28;20055;-84
2021/09/02 07:08:21;;;;;;;17.00;9.00;;;;;;;;;;5055302;28;20021;-84
2021/09/02 07:10:46;;;;;;;17.35;9.85;;;;;;;;;;5057132;28;20439;-84
2021/09/02 07:13:12;;;;;;;16.67;9.23;;;;;;;;;;5021821;28;20119;-84
2021/09/02 07:15:38;;;;;;;15.38;8.38;;;;;;;;;;5022451;28;20115;-83
2021/09/02 07:18:03;;;;;;;18.92;9.90;;;;;;;;;;5056992;28;20029;-84
2021/09/02 07:20:29;;;;;;;15.35;9.60;;;;;;;;;;5055882;28;20064;-84
2021/09/02 07:22:55;;;;;;;16.42;9.65;;;;;;;;;;5056645;28;20120;-84
2021/09/02 07:25:20;;;;;;;24.05;10.13;;;;;;;;;;5038541;28;20537;-84
2021/09/02 07:27:46;;;;;;;18.45;8.98;;;;;;;;;;5055183;28;20020;-84
2021/09/02 07:30:11;;;;;;;16.58;8.73;;;;;;;;;;5039597;28;20402;-83
2021/09/02 07:32:37;;;;;;;14.45;8.68;;;;;;;;;;5055904;28;20036;-83
2021/09/02 07:35:03;;;;;;;14.55;9.00;;;;;;;;;;5037015;28;20459;-83
2021/09/02 07:37:29;;;;;;;16.35;9.07;;;;;;;;;;5054543;28;20465;-83
2021/09/02 07:39:54;;;;;;;14.98;8.88;;;;;;;;;;5054208;28;20036;-83
2021/09/02 07:42:20;;;;;;;16.48;8.73;;;;;;;;;;5053917;28;20024;-84
2021/09/02 07:44:45;;;;;;;15.98;9.13;;;;;;;;;;5056337;28;20017;-84
2021/09/02 07:47:11;;;;;;;13.50;8.15;;;;;;;;;;5037959;28;20029;-83
2021/09/02 07:49:36;;;;;;;16.13;8.18;;;;;;;;;;5037560;28;20055;-83
2021/09/02 07:52:02;;;;;;;14.05;8.23;;;;;;;;;;5037032;28;20029;-83
2021/09/02 07:54:28;;;;;;;13.18;7.78;;;;;;;;;;5054216;28;20029;-83
2021/09/02 07:56:53;;;;;;;16.40;8.43;;;;;;;;;;5037322;28;20033;-83
2021/09/02 07:59:21;;;;;;;14.43;8.43;;;;;;;;;;5020636;28;20489;-83
2021/09/02 08:01:46;;;;;;;17.55;8.93;;;;;;;;;;5037733;28;20031;-83
2021/09/02 08:04:12;;;;;;;16.95;8.82;;;;;;;;;;5055329;28;20021;-83
2021/09/02 08:06:37;;;;;;;13.98;8.75;;;;;;;;;;5037361;28;20116;-83
2021/09/02 08:09:03;;;;;;;16.27;7.97;;;;;;;;;;5036864;28;20040;-83
2021/09/02 08:11:29;;;;;;;14.82;7.60;;;;;;;;;;5020535;28;20033;-84
2021/09/02 08:13:55;;;;;;;12.88;7.50;;;;;;;;;;5053577;28;20036;-83
2021/09/02 08:16:25;;;;;;;14.73;7.68;;;;;;;;;;5053745;28;20104;-83
2021/09/02 08:18:50;;;;;;;13.85;7.90;;;;;;;;;;5037120;28;20070;-83
2021/09/02 08:21:16;;;;;;;12.95;7.60;;;;;;;;;;5055047;28;20468;-84
2021/09/02 08:23:42;;;;;;;12.93;8.20;;;;;;;;;;5053493;28;20132;-83
2021/09/02 08:26:08;;;;;;;13.13;8.45;;;;;;;;;;5055491;28;20021;-84
2021/09/02 08:28:33;;;;;;;15.15;8.80;;;;;;;;;;5053964;28;20025;-84
2021/09/02 08:30:59;;;;;;;17.33;9.18;;;;;;;;;;5053711;28;20167;-83
2021/09/02 08:33:25;;;;;;;17.30;8.88;;;;;;;;;;5036502;28;20388;-84
2021/09/02 08:35:51;;;;;;;13.98;7.22;;;;;;;;;;5055119;28;20025;-83
2021/09/02 08:38:17;;;;;;;13.63;7.25;;;;;;;;;;5037715;28;20036;-84
2021/09/02 08:40:43;;;;;;;14.13;6.47;;;;;;;;;;5037372;28;20033;-83
2021/09/02 08:43:09;;;;;;;11.20;6.93;;;;;;;;;;5055827;28;20029;-84
2021/09/02 08:45:34;;;;;;;12.25;5.93;;;;;;;;;;5040302;28;20033;-84
2021/09/02 08:48:00;;;;;;;9.95;5.88;;;;;;;;;;5041684;28;20053;-84
2021/09/02 08:50:28;;;;;;;12.70;6.30;;;;;;;;;;5042670;28;20036;-84
2021/09/02 08:52:54;;;;;;;10.10;5.97;;;;;;;;;;5058722;28;20415;-83
2021/09/02 08:55:20;;;;;;;17.45;6.93;;;;;;;;;;5041418;28;20131;-84
2021/09/02 08:57:52;;;;;;;13.10;6.57;;;;;;;;;;5058864;28;20070;-84
2021/09/02 09:00:19;;;;;;;11.55;6.70;;;;;;;;;;5057925;28;20032;-84
2021/09/02 09:02:47;;;;;;;12.95;7.03;;;;;;;;;;5041604;28;20056;-84
2021/09/02 09:05:15;;;;;;;12.02;6.97;;;;;;;;;;5041681;28;20033;-84
2021/09/02 09:07:45;;;;;;;12.52;7.13;;;;;;;;;;5060350;28;20028;-84
2021/09/02 09:10:15;;;;;;;13.35;7.10;;;;;;;;;;5062318;28;20036;-84
2021/09/02 09:12:43;;;;;;;13.52;6.68;;;;;;;;;;5060427;28;20021;-84
2021/09/02 09:15:15;;;;;;;13.13;6.38;;;;;;;;;;5041484;28;20048;-84
2021/09/02 09:17:40;;;;;;;13.20;7.30;;;;;;;;;;5057010;28;20385;-83
2021/09/02 09:20:07;;;;;;;12.55;7.20;;;;;;;;;;5056967;28;20024;-84
2021/09/02 09:22:33;;;;;;;15.90;7.03;;;;;;;;;;5046631;28;20053;-84
2021/09/02 09:25:10;;;;;;;14.32;6.97;;;;;;;;;;5057521;28;20029;-84
2021/09/02 09:27:47;;;;;;;11.77;6.53;;;;;;;;;;5059000;28;20029;-84
2021/09/02 09:30:24;;;;;;;15.43;7.22;;;;;;;;;;5057058;28;20028;-84
2021/09/02 09:32:54;;;;;;;12.02;6.97;;;;;;;;;;5059805;28;20020;-84
2021/09/02 09:35:21;;;;;;;12.07;6.40;;;;;;;;;;5057963;28;20025;-84
2021/09/02 09:37:48;;;;;;;14.50;7.07;;;;;;;;;;5057065;28;20025;-84
2021/09/02 09:40:19;;;;;;;13.50;6.75;;;;;;;;;;5057489;28;20025;-84
2021/09/02 09:43:03;;;;;;;13.95;6.80;;;;;;;;;;5056770;28;20021;-84
2021/09/02 09:45:54;;;;;;;12.77;7.22;;;;;;;;;;5056724;28;20472;-84
2021/09/02 09:48:20;;;;;;;13.48;6.95;;;;;;;;;;5056638;28;20025;-84
2021/09/02 09:51:03;;;;;;;16.52;7.53;;;;;;;;;;5056615;28;20086;-84
2021/09/02 09:53:28;;;;;;;;;;;;;;;;;;5056649;28;20079;-84
2021/09/02 09:55:54;;;;;;;13.35;7.07;;;;;;;;;;5056257;28;19920;-84
2021/09/02 09:58:24;;;;;;;14.25;7.63;;;;;;;;;;5056001;28;20030;-84
2021/09/02 10:01:01;;;;;;;12.85;7.70;;;;;;;;;;5056051;28;20377;-84
2021/09/02 10:03:29;;;;;;;13.95;7.28;;;;;;;;;;5040206;28;20366;-84
2021/09/02 10:05:58;;;;;;;14.55;7.80;;;;;;;;;;5056177;28;20021;-84
2021/09/02 10:08:24;;;;;;;15.73;7.93;;;;;;;;;;5056596;28;20508;-84
2021/09/02 10:10:50;;;;;;;15.55;7.45;;;;;;;;;;5039892;28;20128;-84
2021/09/02 10:13:16;;;;;;;11.60;7.35;;;;;;;;;;5039994;28;20028;-84
2021/09/02 10:15:42;;;;;;;13.02;7.63;;;;;;;;;;5039448;28;20052;-84
2021/09/02 10:18:08;;;;;;;12.98;7.20;;;;;;;;;;5055847;28;20459;-84
2021/09/02 10:20:37;;;;;;;11.80;7.22;;;;;;;;;;5056896;28;20503;-84
2021/09/02 10:23:04;;;;;;;14.27;7.50;;;;;;;;;;5057174;28;20027;-83
2021/09/02 10:25:33;;;;;;;12.07;7.45;;;;;;;;;;5039785;28;20067;-84
2021/09/02 10:28:00;;;;;;;14.13;7.07;;;;;;;;;;5056695;28;20025;-84
2021/09/02 10:30:27;;;;;;;15.63;7.82;;;;;;;;;;5056263;28;20051;-84
2021/09/02 10:32:54;;;;;;;14.20;7.97;;;;;;;;;;5056251;28;20488;-84
2021/09/02 10:35:19;;;;;;;12.18;7.40;;;;;;;;;;5039645;28;20030;-84
2021/09/02 10:37:44;;;;;;;13.25;7.63;;;;;;;;;;5056664;28;20032;-84
2021/09/02 10:40:16;;;;;;;13.80;7.30;;;;;;;;;;5055531;28;20028;-84
2021/09/02 10:42:49;;;;;;;12.77;7.43;;;;;;;;;;5056082;28;20388;-84
2021/09/02 10:45:27;;;;;;;15.35;7.68;;;;;;;;;;5057480;28;20366;-84
2021/09/02 10:47:54;;;;;;;16.83;7.82;;;;;;;;;;5055412;28;20039;-84
2021/09/02 10:50:23;;;;;;;10.20;7.03;;;;;;;;;;5055711;28;20025;-84
2021/09/02 10:52:49;;;;;;;12.38;7.38;;;;;;;;;;5055340;28;20048;-84
2021/09/02 10:55:39;;;;;;;14.55;7.63;;;;;;;;;;5055561;28;20124;-84
2021/09/02 10:58:05;;;;;;;12.65;7.57;;;;;;;;;;5056421;28;20013;-84
2021/09/02 11:00:39;;;;;;;14.45;7.30;;;;;;;;;;5055079;28;20031;-84
2021/09/02 11:03:19;;;;;;;12.45;7.15;;;;;;;;;;5054852;28;20033;-84
2021/09/02 11:05:53;;;;;;;10.40;7.22;;;;;;;;;;5039109;28;20016;-84
2021/09/02 11:08:35;;;;;;;13.55;7.53;;;;;;;;;;5054144;28;20013;-84
2021/09/02 11:11:21;;;;;;;14.23;7.20;;;;;;;;;;5029505;28;20557;-84
2021/09/02 11:13:52;;;;;;;14.85;7.82;;;;;;;;;;5054702;28;20029;-84
2021/09/02 11:16:21;;;;;;;13.95;7.85;;;;;;;;;;5054861;28;20025;-84
2021/09/02 11:18:55;;;;;;;13.77;7.80;;;;;;;;;;5037515;28;20075;-84
2021/09/02 11:21:23;;;;;;;14.82;7.63;;;;;;;;;;5055596;28;20024;-84
2021/09/02 11:23:59;;;;;;;12.32;7.60;;;;;;;;;;5055989;28;20419;-84
2021/09/02 11:26:33;;;;;;;14.75;8.13;;;;;;;;;;5056487;28;20029;-84
2021/09/02 11:28:59;;;;;;;13.43;7.28;;;;;;;;;;5055864;28;20021;-84
2021/09/02 11:31:24;;;;;;;15.43;7.60;;;;;;;;;;5054040;28;20040;-84
2021/09/02 11:33:51;;;;;;;12.57;7.25;;;;;;;;;;5055981;28;20017;-84
2021/09/02 11:36:19;;;;;;;11.85;7.13;;;;;;;;;;5053767;28;20484;-84
2021/09/02 11:38:46;;;;;;;15.73;8.23;;;;;;;;;;5037368;28;20124;-84
2021/09/02 11:41:22;;;;;;;12.80;7.30;;;;;;;;;;5020998;28;20029;-84
2021/09/02 11:43:51;;;;;;;9.30;6.85;;;;;;;;;;5037773;28;20037;-84
2021/09/02 11:46:21;;;;;;;10.60;7.00;;;;;;;;;;5054100;28;20052;-84
2021/09/02 11:48:55;;;;;;;13.55;6.97;;;;;;;;;;5056831;28;20052;-84
2021/09/02 11:51:28;;;;;;;14.00;7.10;;;;;;;;;;5056067;28;20034;-84
2021/09/02 11:54:08;;;;;;;13.38;7.53;;;;;;;;;;5054472;28;20057;-84
2021/09/02 11:56:34;;;;;;;12.93;7.75;;;;;;;;;;5044934;28;20506;-84
2021/09/02 11:59:03;;;;;;;14.27;7.63;;;;;;;;;;5054440;28;20098;-84
2021/09/02 12:01:29;;;;;;;14.82;7.93;;;;;;;;;;5054433;28;20083;-84
2021/09/02 12:03:55;;;;;;;12.82;7.95;;;;;;;;;;5054852;28;20021;-84
2021/09/02 12:06:25;;;;;;;12.13;7.13;;;;;;;;;;5053721;28;20025;-84
2021/09/02 12:08:52;;;;;;;10.98;7.20;;;;;;;;;;5054253;28;20484;-84
2021/09/02 12:11:22;;;;;;;13.35;6.93;;;;;;;;;;5054010;28;20508;-84
2021/09/02 12:13:48;;;;;;;11.45;6.72;;;;;;;;;;5053357;28;20024;-84
2021/09/02 12:16:17;;;;;;;12.40;7.15;;;;;;;;;;5054888;28;20043;-84
2021/09/02 12:18:45;;;;;;;11.05;7.22;;;;;;;;;;5043199;28;20116;-84
2021/09/02 12:21:16;;;;;;;14.48;6.88;;;;;;;;;;5053062;28;20461;-84
2021/09/02 12:24:04;;;;;;;14.48;7.30;;;;;;;;;;5052853;28;20029;-84
2021/09/02 12:26:51;;;;;;;11.80;7.30;;;;;;;;;;5053163;28;20503;-84
2021/09/02 12:29:19;;;;;;;16.73;7.60;;;;;;;;;;5037025;28;20028;-84
2021/09/02 12:31:47;;;;;;;13.20;7.50;;;;;;;;;;5054345;28;20511;-84
2021/09/02 12:34:18;;;;;;;11.18;6.97;;;;;;;;;;5053349;28;20430;-84
2021/09/02 12:36:45;;;;;;;12.93;7.25;;;;;;;;;;5054507;28;20035;-84
2021/09/02 12:39:21;;;;;;;10.98;7.18;;;;;;;;;;5036670;28;20036;-84
2021/09/02 12:41:51;;;;;;;12.00;7.20;;;;;;;;;;5052553;28;20029;-84
2021/09/02 12:44:43;;;;;;;10.55;6.95;;;;;;;;;;5053256;28;20353;-84
2021/09/02 12:47:17;;;;;;;11.27;6.35;;;;;;;;;;5037357;28;20041;-84
2021/09/02 12:49:48;;;;;;;10.30;6.45;;;;;;;;;;5053996;28;20029;-84
2021/09/02 12:52:30;;;;;;;9.77;6.50;;;;;;;;;;5052340;28;20032;-84
2021/09/02 12:55:13;;;;;;;10.93;6.63;;;;;;;;;;5052775;28;20104;-84
2021/09/02 12:57:44;;;;;;;11.05;6.45;;;;;;;;;;5041501;28;20025;-84
2021/09/02 13:00:13;;;;;;;11.02;6.18;;;;;;;;;;5055575;28;20047;-84
2021/09/02 13:02:39;;;;;;;8.77;6.07;;;;;;;;;;5053629;28;20468;-84
2021/09/02 13:05:06;;;;;;;9.18;5.82;;;;;;;;;;5054180;28;20096;-84
2021/09/02 13:07:31;;;;;;;9.80;6.35;;;;;;;;;;5053241;28;20128;-84
2021/09/02 13:09:58;;;;;;;12.02;6.20;;;;;;;;;;5053425;28;20480;-84
2021/09/02 13:12:24;;;;;;;11.30;6.72;;;;;;;;;;5053740;28;20052;-84
2021/09/02 13:14:50;;;;;;;12.98;6.78;;;;;;;;;;5055296;28;20037;-84
2021/09/02 13:17:15;;;;;;;11.98;5.88;;;;;;;;;;5038221;28;20376;-84
2021/09/02 13:19:40;;;;;;;11.70;6.30;;;;;;;;;;5055508;28;20025;-84
2021/09/02 13:22:06;;;;;;;9.88;5.80;;;;;;;;;;5021466;28;20387;-84
2021/09/02 13:24:32;;;;;;;11.32;6.18;;;;;;;;;;5055191;28;20023;-84
2021/09/02 13:26:58;;;;;;;11.60;7.07;;;;;;;;;;5036741;28;20029;-84
2021/09/02 13:29:23;;;;;;;11.77;6.78;;;;;;;;;;5053822;28;20107;-84
2021/09/02 13:31:49;;;;;;;12.15;6.60;;;;;;;;;;5038082;28;20443;-84
2021/09/02 13:34:14;;;;;;;9.40;6.75;;;;;;;;;;5040423;28;20125;-84
2021/09/02 13:36:40;;;;;;;19.95;7.63;;;;;;;;;;5023853;28;20036;-85
2021/09/02 13:39:05;;;;;;;10.93;6.72;;;;;;;;;;5040348;28;20031;-84
2021/09/02 13:41:31;;;;;;;11.93;6.88;;;;;;;;;;5023211;28;20488;-84
2021/09/02 13:43:56;;;;;;;11.00;6.82;;;;;;;;;;5057361;28;20032;-84
2021/09/02 13:46:21;;;;;;;10.75;7.13;;;;;;;;;;5056913;28;20033;-84
2021/09/02 13:48:47;;;;;;;12.38;7.45;;;;;;;;;;5024216;28;20083;-84
2021/09/02 13:51:13;;;;;;;10.90;7.45;;;;;;;;;;5039034;28;20024;-84
2021/09/02 13:53:39;;;;;;;11.60;7.18;;;;;;;;;;5056530;28;20053;-84
2021/09/02 13:56:05;;;;;;;11.65;6.35;;;;;;;;;;5056546;28;20032;-84
2021/09/02 13:58:30;;;;;;;9.32;6.57;;;;;;;;;;5039402;28;20033;-84
2021/09/02 14:01:00;;;;;;;14.40;7.60;;;;;;;;;;5039649;28;20037;-85
2021/09/02 14:03:26;;;;;;;14.15;8.02;;;;;;;;;;5044135;28;20033;-85
2021/09/02 14:05:52;;;;;;;12.50;7.30;;;;;;;;;;5044018;28;20048;-85
2021/09/02 14:08:17;;;;;;;12.75;7.80;;;;;;;;;;5025381;28;20021;-84
2021/09/02 14:10:42;;;;;;;10.77;7.15;;;;;;;;;;5048523;28;20086;-84
2021/09/02 14:13:08;;;;;;;12.98;7.75;;;;;;;;;;5061503;28;20078;-84
2021/09/02 14:15:33;;;;;;;13.25;7.70;;;;;;;;;;5038968;28;20029;-84
2021/09/02 14:17:59;;;;;;;15.02;7.10;;;;;;;;;;5021675;28;20025;-84
2021/09/02 14:20:24;;;;;;;10.45;6.68;;;;;;;;;;5038877;28;20037;-85
2021/09/02 14:22:50;;;;;;;12.93;6.50;;;;;;;;;;5054717;28;20028;-85
2021/09/02 14:25:16;;;;;;;12.20;6.40;;;;;;;;;;5022552;28;20546;-85